createdAt,value
2022-08-12T00:00:51.324Z,2.58
2022-08-12T00:03:36.893Z,2.95
2022-08-12T00:06:23.139Z,2.97
2022-08-12T00:09:09.633Z,3.25
2022-08-12T00:11:55.301Z,2.65
2022-08-12T00:14:41.682Z,2.95
2022-08-12T00:17:27.640Z,3.85
2022-08-12T00:20:13.203Z,3.28
2022-08-12T00:23:00.179Z,3.87
2022-08-12T00:26:22.714Z,2.53
2022-08-12T00:29:11.438Z,3.15
2022-08-12T00:31:57.627Z,2.83
2022-08-12T00:34:43.393Z,2.65
2022-08-12T00:37:28.791Z,4.13
2022-08-12T00:40:14.823Z,3.60
2022-08-12T00:42:42.358Z,3.95
2022-08-12T00:45:10.236Z,3.10
2022-08-12T00:47:38.583Z,3.47
2022-08-12T00:50:06.684Z,3.78
2022-08-12T00:52:35.154Z,3.03
2022-08-12T00:55:03.927Z,4.27
2022-08-12T00:57:35.743Z,3.90
2022-08-12T01:00:08.388Z,3.42
2022-08-12T01:02:39.489Z,3.13
2022-08-12T01:05:31.434Z,4.45
2022-08-12T01:08:16.946Z,2.57
2022-08-12T01:11:05.297Z,4.78
2022-08-12T01:13:34.835Z,3.55
2022-08-12T01:16:04.111Z,4.00
2022-08-12T01:18:33.815Z,3.40
2022-08-12T01:21:19.306Z,2.70
2022-08-12T01:24:22.888Z,3.70
2022-08-12T01:26:58.412Z,3.70
2022-08-12T01:29:32.811Z,3.33
2022-08-12T01:32:06.160Z,3.85
2022-08-12T01:34:37.612Z,2.75
2022-08-12T01:37:07.461Z,3.53
2022-08-12T01:40:32.067Z,3.92
2022-08-12T01:42:45.770Z,3.55
2022-08-12T01:45:13.887Z,3.90
2022-08-12T01:47:53.960Z,3.05
2022-08-12T01:50:52.762Z,3.37
2022-08-12T01:53:20.627Z,2.88
2022-08-12T01:55:49.420Z,3.40
2022-08-12T01:58:55.340Z,3.88
2022-08-12T02:01:27.571Z,4.25
2022-08-12T02:04:25.140Z,3.78
2022-08-12T02:11:16.095Z,5.38
2022-08-12T02:13:50.166Z,3.13
2022-08-12T02:16:36.309Z,6.15
2022-08-12T02:19:40.750Z,3.78
2022-08-12T02:22:17.304Z,3.38
2022-08-12T02:24:46.560Z,5.20
2022-08-12T02:27:15.804Z,4.93
2022-08-12T02:29:42.759Z,5.60
2022-08-12T02:32:10.418Z,3.28
2022-08-12T02:34:37.897Z,4.10
2022-08-12T02:37:04.991Z,5.30
2022-08-12T02:39:33.947Z,5.87
2022-08-12T02:42:04.358Z,4.10
2022-08-12T02:44:37.693Z,3.47
2022-08-12T02:47:06.397Z,3.58
2022-08-12T02:49:39.652Z,4.03
2022-08-12T02:52:07.931Z,3.25
2022-08-12T02:54:36.155Z,3.97
2022-08-12T02:57:03.023Z,3.97
2022-08-12T02:59:31.233Z,3.22
2022-08-12T03:02:05.896Z,4.20
2022-08-12T03:04:43.943Z,3.78
2022-08-12T03:07:14.768Z,4.38
2022-08-12T03:10:14.628Z,4.03
2022-08-12T03:12:49.331Z,3.80
2022-08-12T03:15:22.425Z,3.53
2022-08-12T03:18:26.119Z,3.45
2022-08-12T03:20:56.616Z,4.28
2022-08-12T03:23:28.948Z,3.53
2022-08-12T03:26:01.340Z,3.15
2022-08-12T03:28:51.713Z,3.85
2022-08-12T03:31:22.462Z,3.55
2022-08-12T03:34:02.310Z,4.17
2022-08-12T03:36:34.710Z,3.85
2022-08-12T03:39:36.094Z,4.90
2022-08-12T03:42:25.764Z,4.03
2022-08-12T03:45:16.651Z,3.90
2022-08-12T03:48:18.905Z,3.85
2022-08-12T03:51:06.085Z,4.72
2022-08-12T03:53:51.804Z,3.50
2022-08-12T03:56:37.426Z,5.20
2022-08-12T03:59:25.059Z,3.75
2022-08-12T04:01:57.372Z,3.95
2022-08-12T04:04:35.415Z,4.15
2022-08-12T04:07:07.951Z,3.72
2022-08-12T04:09:37.553Z,4.25
2022-08-12T04:12:26.061Z,3.63
2022-08-12T04:14:56.948Z,4.60
2022-08-12T04:17:24.608Z,4.43
2022-08-12T04:19:52.952Z,4.72
2022-08-12T04:22:22.203Z,3.28
2022-08-12T04:24:50.705Z,4.72
2022-08-12T04:27:17.570Z,4.55
2022-08-12T04:30:29.704Z,5.32
2022-08-12T04:32:32.225Z,3.38
2022-08-12T04:35:00.290Z,4.28
2022-08-12T04:37:27.528Z,4.28
2022-08-12T04:39:54.982Z,4.00
2022-08-12T04:42:25.418Z,3.83
2022-08-12T04:44:52.661Z,3.70
2022-08-12T04:47:21.322Z,3.80
2022-08-12T04:49:49.175Z,4.30
2022-08-12T04:52:16.615Z,4.32
2022-08-12T04:54:44.045Z,4.95
2022-08-12T04:57:11.573Z,3.55
2022-08-12T04:59:48.085Z,4.93
2022-08-12T05:02:21.089Z,3.70
2022-08-12T05:04:56.196Z,3.30
2022-08-12T05:07:28.088Z,4.55
2022-08-12T05:09:59.969Z,5.70
2022-08-12T05:12:39.577Z,3.85
2022-08-12T05:15:19.020Z,3.85
2022-08-12T05:17:55.815Z,4.03
2022-08-12T05:20:23.192Z,4.57
2022-08-12T05:22:53.119Z,8.82
2022-08-12T05:25:24.641Z,5.43
2022-08-12T05:27:56.865Z,4.57
2022-08-12T05:30:29.089Z,4.07
2022-08-12T05:32:59.797Z,4.80
2022-08-12T05:35:27.852Z,3.47
2022-08-12T05:38:14.928Z,4.90
2022-08-12T05:40:41.964Z,4.15
2022-08-12T05:43:08.970Z,4.17
2022-08-12T05:45:35.853Z,3.67
2022-08-12T05:48:02.967Z,4.88
2022-08-12T05:50:29.970Z,3.58
2022-08-12T05:52:56.823Z,4.93
2022-08-12T05:55:26.942Z,6.40
2022-08-12T05:57:56.319Z,6.05
2022-08-12T06:00:25.629Z,10.17
2022-08-12T06:03:02.573Z,6.10
2022-08-12T06:05:43.182Z,5.55
2022-08-12T06:08:20.956Z,8.90
2022-08-12T06:10:49.441Z,6.05
2022-08-12T06:13:28.460Z,6.13
2022-08-12T06:16:07.741Z,5.70
2022-08-12T06:18:34.706Z,6.80
2022-08-12T06:21:02.366Z,9.95
2022-08-12T06:23:30.155Z,6.95
2022-08-12T06:25:58.763Z,6.57
2022-08-12T06:28:26.190Z,6.63
2022-08-12T06:31:22.301Z,6.60
2022-08-12T06:34:01.092Z,6.65
2022-08-12T06:36:32.672Z,8.73
2022-08-12T06:39:00.934Z,12.73
2022-08-12T06:42:02.426Z,11.63
2022-08-12T06:44:33.304Z,13.73
2022-08-12T06:47:00.465Z,11.30
2022-08-12T06:49:33.391Z,10.70
2022-08-12T06:52:00.197Z,12.52
2022-08-12T06:54:31.509Z,12.30
2022-08-12T06:57:05.388Z,10.93
2022-08-12T06:59:47.887Z,10.27
2022-08-12T07:02:15.072Z,8.75
2022-08-12T07:04:42.092Z,8.02
2022-08-12T07:07:09.934Z,7.63
2022-08-12T07:10:03.718Z,8.57
2022-08-12T07:12:27.851Z,6.82
2022-08-12T07:14:58.815Z,8.55
2022-08-12T07:17:35.509Z,9.10
2022-08-12T07:20:05.295Z,10.70
2022-08-12T07:22:33.270Z,6.27
2022-08-12T07:25:18.518Z,6.68
2022-08-12T07:27:46.499Z,7.67
2022-08-12T07:30:14.283Z,8.35
2022-08-12T07:32:41.388Z,7.55
2022-08-12T07:35:08.651Z,8.23
2022-08-12T07:37:40.836Z,8.70
2022-08-12T07:40:11.616Z,5.65
2022-08-12T07:42:39.844Z,7.57
2022-08-12T07:45:07.424Z,7.28
2022-08-12T07:47:34.534Z,7.10
2022-08-12T07:50:04.427Z,5.47
2022-08-12T07:52:38.285Z,6.23
2022-08-12T07:55:06.202Z,6.85
2022-08-12T07:57:33.652Z,7.15
2022-08-12T08:00:06.135Z,5.38
2022-08-12T08:02:37.098Z,6.37
2022-08-12T08:05:05.299Z,5.95
2022-08-12T08:07:32.207Z,6.47
2022-08-12T08:10:02.134Z,7.65
2022-08-12T08:12:48.562Z,5.13
2022-08-12T08:15:16.519Z,6.30
2022-08-12T08:17:56.539Z,4.97
2022-08-12T08:20:28.350Z,6.25
2022-08-12T08:22:59.599Z,4.97
2022-08-12T08:25:38.712Z,5.65
2022-08-12T08:28:11.115Z,5.35
2022-08-12T08:30:42.359Z,5.93
2022-08-12T08:33:22.602Z,4.53
2022-08-12T08:35:50.228Z,6.53
2022-08-12T08:38:33.136Z,7.27
2022-08-12T08:42:16.941Z,6.95
2022-08-12T08:44:11.741Z,7.18
2022-08-12T08:46:40.141Z,5.00
2022-08-12T08:49:07.213Z,5.35
2022-08-12T08:51:35.213Z,5.70
2022-08-12T08:54:02.213Z,6.60
2022-08-12T08:56:29.642Z,4.53
2022-08-12T08:58:57.579Z,6.22
2022-08-12T09:01:25.186Z,4.65
2022-08-12T09:05:07.199Z,5.32
2022-08-12T09:06:41.978Z,5.72
2022-08-12T09:09:21.170Z,6.40
2022-08-12T09:12:11.827Z,9.10
2022-08-12T09:14:46.970Z,4.30
2022-08-12T09:17:22.313Z,5.00
2022-08-12T09:19:56.905Z,6.27
2022-08-12T09:22:29.209Z,7.77
2022-08-12T09:24:59.872Z,5.40
2022-08-12T09:28:15.536Z,4.30
2022-08-12T09:30:41.253Z,4.07
2022-08-12T09:33:18.455Z,5.03
2022-08-12T09:35:46.834Z,4.97
2022-08-12T09:38:31.998Z,4.65
2022-08-12T09:42:07.395Z,5.57
2022-08-12T09:44:05.752Z,4.82
2022-08-12T09:46:34.613Z,3.85
2022-08-12T09:49:04.092Z,15.63
2022-08-12T09:51:43.796Z,3.95
2022-08-12T09:54:32.860Z,4.93
2022-08-12T09:57:03.641Z,6.75
2022-08-12T10:00:12.819Z,6.03
2022-08-12T10:02:53.345Z,4.78
2022-08-12T10:05:22.638Z,4.43
2022-08-12T10:08:11.272Z,5.07
2022-08-12T10:10:58.346Z,5.75
2022-08-12T10:13:43.907Z,4.25
2022-08-12T10:16:24.379Z,5.03
2022-08-12T10:19:03.032Z,6.20
2022-08-12T10:21:37.912Z,8.40
2022-08-12T10:24:23.051Z,4.67
2022-08-12T10:27:08.895Z,5.25
2022-08-12T10:30:03.580Z,3.73
2022-08-12T10:32:44.038Z,4.03
2022-08-12T10:35:15.281Z,5.97
2022-08-12T10:38:36.523Z,5.07
2022-08-12T10:40:33.527Z,6.67
2022-08-12T10:43:19.747Z,3.83
2022-08-12T10:45:49.161Z,4.28
2022-08-12T10:48:23.086Z,9.20
2022-08-12T10:51:01.808Z,5.55
2022-08-12T10:53:43.867Z,4.63
2022-08-12T10:56:11.633Z,5.40
2022-08-12T10:58:39.352Z,4.63
2022-08-12T11:01:50.441Z,4.55
2022-08-12T11:04:28.475Z,4.72
2022-08-12T11:07:07.183Z,2.93
2022-08-12T11:09:51.366Z,5.15
2022-08-12T11:12:55.712Z,4.25
2022-08-12T11:15:19.197Z,4.57
2022-08-12T11:17:53.953Z,5.55
2022-08-12T11:20:28.963Z,6.60
2022-08-12T11:23:24.586Z,3.50
2022-08-12T11:25:58.059Z,7.90
2022-08-12T11:28:33.261Z,4.28
2022-08-12T11:31:02.156Z,5.70
2022-08-12T11:34:06.192Z,5.90
2022-08-12T11:36:16.937Z,5.20
2022-08-12T11:38:50.778Z,6.57
2022-08-12T11:41:31.435Z,7.20
2022-08-12T11:44:35.117Z,5.35
2022-08-12T11:46:52.976Z,3.70
2022-08-12T11:49:31.208Z,6.50
2022-08-12T11:52:02.731Z,7.18
2022-08-12T11:54:30.913Z,6.35
2022-08-12T11:57:01.993Z,4.90
2022-08-12T12:01:58.971Z,5.97
2022-08-12T12:02:20.493Z,4.60
2022-08-12T12:04:52.517Z,5.30
2022-08-12T12:08:36.024Z,4.72
2022-08-12T12:10:14.619Z,8.88
2022-08-12T12:12:49.646Z,4.35
2022-08-12T12:15:25.097Z,4.35
2022-08-12T12:18:04.399Z,4.90
2022-08-12T12:20:31.322Z,3.53
2022-08-12T12:22:58.896Z,10.60
2022-08-12T12:26:07.368Z,4.70
2022-08-12T12:28:29.630Z,5.47
2022-08-12T12:31:01.859Z,4.30
2022-08-12T12:33:57.096Z,5.93
2022-08-12T12:36:24.085Z,4.35
2022-08-12T12:38:56.088Z,6.07
2022-08-12T12:42:40.684Z,3.45
2022-08-12T12:44:13.354Z,4.70
2022-08-12T12:46:52.314Z,5.00
2022-08-12T12:49:26.081Z,3.43
2022-08-12T12:52:18.400Z,5.47
2022-08-12T12:54:52.379Z,6.03
2022-08-12T12:57:35.839Z,3.15
2022-08-12T13:00:16.683Z,3.50
2022-08-12T13:02:45.945Z,3.88
2022-08-12T13:05:28.879Z,3.27
2022-08-12T13:08:00.993Z,3.90
2022-08-12T13:10:37.101Z,5.20
2022-08-12T13:13:09.651Z,3.45
2022-08-12T13:15:59.261Z,3.00
2022-08-12T13:18:36.259Z,3.88
2022-08-12T13:21:15.515Z,3.92
2022-08-12T13:23:56.475Z,3.60
2022-08-12T13:26:23.662Z,3.63
2022-08-12T13:28:55.969Z,2.55
2022-08-12T13:31:25.069Z,3.17
2022-08-12T13:34:29.646Z,2.85
2022-08-12T13:36:41.842Z,2.57
2022-08-12T13:39:09.263Z,2.42
2022-08-12T13:41:36.464Z,2.47
2022-08-12T13:44:10.462Z,2.25
2022-08-12T13:46:38.708Z,2.90
2022-08-12T13:49:07.611Z,3.42
2022-08-12T13:51:40.764Z,2.13
2022-08-12T13:54:11.555Z,2.95
2022-08-12T13:56:40.884Z,2.80
2022-08-12T13:59:08.768Z,2.75
2022-08-12T14:01:41.192Z,3.03
2022-08-12T14:04:11.675Z,3.65
2022-08-12T14:06:40.038Z,2.77
2022-08-12T14:09:17.251Z,2.72
2022-08-12T14:11:51.330Z,3.25
2022-08-12T14:14:31.618Z,2.15
2022-08-12T14:17:05.510Z,2.20
2022-08-12T14:19:44.018Z,3.72
2022-08-12T14:22:19.798Z,2.50
2022-08-12T14:24:46.935Z,3.22
2022-08-12T14:27:13.923Z,4.07
2022-08-12T14:30:06.003Z,2.35
2022-08-12T14:32:42.373Z,2.40
2022-08-12T14:35:12.368Z,2.15
2022-08-12T14:37:55.899Z,4.23
2022-08-12T14:40:28.512Z,2.63
2022-08-12T14:42:57.862Z,3.50
2022-08-12T14:45:45.054Z,3.95
2022-08-12T14:48:13.794Z,2.22
2022-08-12T14:52:10.267Z,2.50
2022-08-12T14:59:57.256Z,2.43
2022-08-12T15:02:17.065Z,1.83
2022-08-12T15:04:45.416Z,4.68
2022-08-12T15:07:33.764Z,4.07
2022-08-12T15:10:01.610Z,3.40
2022-08-12T15:12:28.693Z,2.72
2022-08-12T15:14:59.754Z,4.47
2022-08-12T15:17:38.102Z,3.13
2022-08-12T15:20:30.976Z,2.25
2022-08-12T15:22:55.480Z,2.57
2022-08-12T15:25:22.805Z,2.00
2022-08-12T15:28:04.683Z,3.20
2022-08-12T15:30:34.653Z,2.70
2022-08-12T15:33:12.596Z,2.60
2022-08-12T15:35:52.978Z,3.05
2022-08-12T15:38:25.081Z,2.97
2022-08-12T15:40:53.436Z,2.37
2022-08-12T15:43:51.199Z,2.40
2022-08-12T15:46:14.996Z,3.15
2022-08-12T15:48:47.595Z,2.30
2022-08-12T15:51:57.230Z,2.80
2022-08-12T15:54:34.343Z,2.78
2022-08-12T15:57:07.995Z,2.88
2022-08-12T16:00:00.654Z,2.20
2022-08-12T16:02:27.150Z,2.70
2022-08-12T16:04:56.180Z,2.63
2022-08-12T16:07:32.523Z,2.77
2022-08-12T16:10:06.914Z,5.20
2022-08-12T16:12:43.405Z,1.85
2022-08-12T16:15:13.412Z,3.87
2022-08-12T16:18:18.246Z,2.60
2022-08-12T16:20:33.652Z,5.25
2022-08-12T16:23:04.497Z,2.10
2022-08-12T16:26:05.501Z,2.55
2022-08-12T16:28:33.747Z,3.10
2022-08-12T16:31:01.845Z,3.00
2022-08-12T16:33:59.562Z,3.42
2022-08-12T16:36:29.259Z,3.60
2022-08-12T16:38:56.615Z,3.03
2022-08-12T16:41:25.563Z,2.88
2022-08-12T16:43:55.042Z,3.47
2022-08-12T16:46:32.191Z,2.78
2022-08-12T16:49:04.212Z,3.58
2022-08-12T16:51:40.603Z,2.47
2022-08-12T16:54:12.783Z,2.40
2022-08-12T16:56:50.959Z,2.05
2022-08-12T16:59:22.723Z,2.95
2022-08-12T17:01:50.765Z,2.67
2022-08-12T17:04:18.803Z,2.70
2022-08-12T17:06:47.866Z,4.03
2022-08-12T17:09:17.402Z,3.08
2022-08-12T17:11:49.322Z,3.13
2022-08-12T17:14:20.504Z,2.90
2022-08-12T17:16:52.204Z,3.40
2022-08-12T17:19:20.462Z,3.50
2022-08-12T17:22:09.707Z,3.78
2022-08-12T17:24:39.921Z,3.30
2022-08-12T17:27:15.940Z,2.03
2022-08-12T17:30:01.151Z,2.53
2022-08-12T17:32:33.441Z,2.22
2022-08-12T17:35:20.099Z,2.28
2022-08-12T17:37:48.514Z,2.03
2022-08-12T17:40:34.535Z,3.08
2022-08-12T17:43:51.778Z,3.95
2022-08-12T17:45:56.138Z,2.40
2022-08-12T17:48:35.137Z,2.30
2022-08-12T17:51:12.508Z,3.43
2022-08-12T17:54:11.472Z,1.97
2022-08-12T17:56:37.185Z,2.47
2022-08-12T17:59:07.399Z,3.50
2022-08-12T18:01:35.735Z,2.43
2022-08-12T18:04:21.558Z,2.42
2022-08-12T18:06:51.067Z,1.42
2022-08-12T18:09:20.482Z,3.08
2022-08-12T18:12:24.355Z,2.60
2022-08-12T18:15:01.785Z,2.42
2022-08-12T18:17:30.307Z,2.78
2022-08-12T18:20:07.040Z,3.28
2022-08-12T18:22:35.821Z,3.20
2022-08-12T18:26:13.347Z,2.53
2022-08-12T18:28:15.453Z,2.10
2022-08-12T18:30:53.524Z,2.65
2022-08-12T18:33:26.923Z,2.73
2022-08-12T18:35:55.502Z,1.90
2022-08-12T18:38:24.769Z,2.70
2022-08-12T18:41:21.777Z,2.20
2022-08-12T18:43:59.663Z,3.22
2022-08-12T18:46:32.203Z,3.17
2022-08-12T18:49:16.974Z,2.17
2022-08-12T18:51:55.346Z,2.97
2022-08-12T18:54:34.640Z,4.20
2022-08-12T18:57:19.947Z,3.10
2022-08-12T19:00:01.237Z,3.05
2022-08-12T19:02:36.249Z,2.83
2022-08-12T19:05:14.225Z,2.57
2022-08-12T19:07:49.587Z,2.95
2022-08-12T19:10:26.482Z,2.77
2022-08-12T19:13:18.531Z,2.28
2022-08-12T19:15:58.145Z,1.83
2022-08-12T19:18:29.437Z,3.67
2022-08-12T19:20:58.537Z,3.92
2022-08-12T19:23:35.074Z,2.22
2022-08-12T19:26:05.272Z,3.53
2022-08-12T19:28:38.625Z,3.13
2022-08-12T19:31:55.542Z,2.90
2022-08-12T19:37:38.451Z,2.95
2022-08-12T19:40:20.453Z,2.83
2022-08-12T19:43:19.410Z,4.25
2022-08-12T19:45:51.298Z,3.25
2022-08-12T19:48:20.672Z,4.22
2022-08-12T19:50:52.337Z,3.58
2022-08-12T19:53:24.182Z,4.40
2022-08-12T19:55:55.426Z,4.07
2022-08-12T19:58:23.753Z,4.07
2022-08-12T20:00:54.692Z,3.63
2022-08-12T20:03:38.630Z,4.53
2022-08-12T20:06:13.502Z,5.60
2022-08-12T20:08:49.377Z,4.97
2022-08-12T20:12:13.518Z,3.97
2022-08-12T20:14:18.455Z,4.68
2022-08-12T20:16:53.066Z,5.78
2022-08-12T20:19:52.718Z,4.82
2022-08-12T20:22:24.754Z,3.00
2022-08-12T20:25:05.071Z,5.85
2022-08-12T20:28:04.738Z,5.20
2022-08-12T20:30:52.580Z,4.53
2022-08-12T20:33:18.376Z,9.45
2022-08-12T20:36:13.861Z,4.03
2022-08-12T20:38:36.050Z,4.50
2022-08-12T20:41:17.833Z,4.65
2022-08-12T20:43:49.346Z,8.60
2022-08-12T20:46:18.054Z,5.47
2022-08-12T20:48:46.844Z,8.02
2022-08-12T20:51:22.310Z,10.23
2022-08-12T20:53:57.719Z,9.30
2022-08-12T20:56:34.392Z,7.10
2022-08-12T20:59:10.882Z,9.07
2022-08-12T21:01:46.397Z,5.97
2022-08-12T21:04:34.907Z,5.68
2022-08-12T21:07:04.459Z,5.88
2022-08-12T21:09:40.930Z,11.32
2022-08-12T21:12:28.456Z,9.05
2022-08-12T21:15:24.230Z,6.07
2022-08-12T21:18:11.047Z,8.23
2022-08-12T21:20:50.623Z,5.68
2022-08-12T21:23:20.848Z,7.60
2022-08-12T21:25:50.992Z,5.20
2022-08-12T21:28:20.371Z,11.30
2022-08-12T21:31:11.204Z,5.40
2022-08-12T21:34:06.317Z,9.38
2022-08-12T21:36:32.384Z,8.80
2022-08-12T21:39:35.046Z,3.63
2022-08-12T21:42:05.894Z,8.55
2022-08-12T21:45:46.818Z,9.35
2022-08-12T21:47:23.443Z,5.50
2022-08-12T21:50:03.135Z,5.03
2022-08-12T21:52:36.373Z,5.53
2022-08-12T21:55:07.970Z,6.93
2022-08-12T21:57:48.068Z,4.22
2022-08-12T22:00:19.677Z,6.32
2022-08-12T22:03:05.231Z,7.03
2022-08-12T22:05:50.755Z,4.95
2022-08-12T22:08:22.047Z,15.23
2022-08-12T22:10:56.581Z,7.75
2022-08-12T22:14:02.126Z,8.50
2022-08-12T22:16:13.378Z,8.00
2022-08-12T22:18:44.334Z,7.70
2022-08-12T22:21:19.723Z,12.30
2022-08-12T22:24:05.168Z,8.43
2022-08-12T22:26:37.600Z,14.27
2022-08-12T22:29:23.826Z,8.05
2022-08-12T22:31:54.524Z,7.47
2022-08-12T22:34:22.441Z,7.70
2022-08-12T22:36:57.415Z,11.50
2022-08-12T22:39:24.394Z,16.77
2022-08-12T22:42:12.035Z,15.93
2022-08-12T22:44:57.739Z,9.65
2022-08-12T22:47:53.526Z,16.65
2022-08-12T22:50:27.955Z,13.27
2022-08-12T22:53:16.367Z,21.02
2022-08-12T22:55:59.796Z,27.35
2022-08-12T22:58:33.925Z,30.30
2022-08-12T23:01:02.217Z,36.22
2022-08-12T23:03:49.544Z,21.83
2022-08-12T23:06:25.662Z,24.08
2022-08-12T23:08:55.106Z,27.38
2022-08-12T23:11:23.188Z,23.02
2022-08-12T23:14:01.789Z,36.63
2022-08-12T23:16:33.946Z,20.63
2022-08-12T23:19:10.753Z,15.25
2022-08-12T23:22:05.559Z,6.88
2022-08-12T23:24:38.815Z,10.30
2022-08-12T23:27:43.941Z,13.25
2022-08-12T23:30:19.183Z,10.73
2022-08-12T23:32:54.842Z,7.50
2022-08-12T23:35:46.136Z,9.90
2022-08-12T23:38:30.492Z,10.13
2022-08-12T23:40:59.688Z,16.33
2022-08-12T23:43:26.731Z,12.35
2022-08-12T23:46:11.149Z,11.15
2022-08-12T23:48:39.081Z,9.00
2022-08-12T23:51:23.040Z,11.18
2022-08-12T23:53:56.191Z,10.60
2022-08-12T23:56:26.635Z,11.77
2022-08-12T23:58:58.533Z,10.35
